MET1146 - Portland to Ontario

Boeing 737-200
711MT
2 hrs 00 mins
730 nm
Scheduled - M

Bid/PiRep Status

Bid was submitted on December 28th, 2016 13:12 UTC.
PiRep # 74542: Approved by Dave Nichols on January 1st, 2017 4:06 UTC

Departure

Departing from
Portland (PDX)
Departure gate
Scheduled Departure
GMT 1930
Local 1230
METAR KPDX 201753Z 21014KT 10SM FEW020 BKN070 BKN110 14/09 A2970 RMK AO2 SLP057 T01390089 10139 20100 51013
TAF KPDX 201729Z 2018/2118 23010KT P6SM -SHRA SCT035 BKN070 FM210200 27005KT P6SM BKN035 FM210600 20004KT P6SM OVC035 FM211300 18004KT P6SM OVC025

Arrival

Arriving at
Ontario (ONT)
Arrival gate
Scheduled Arrival
GMT 2130
Local 1430
METAR KONT 201753Z 26005KT 10SM FEW017 SCT028 OVC034 20/13 A2994 RMK AO2 SLP127 T02000133 10200 20183 51010
TAF KONT 201737Z 2018/2124 25004KT P6SM FEW015 SCT023 OVC035 FM202100 25011KT P6SM SCT025 BKN035 FM210400 25007KT P6SM BKN030 FM211200 VRB06KT P6SM VCSH OVC020 FM212000 25008KT P6SM BKN025

Route Map

Planning Resources

LHV J5 EHF ZIGGY4
KPDX POWEL LKV HARTT PYRAM FMG TILTS SONNY TIOGA PINNI EHF KONT
KDPX BTG LKV HARTT PYRAM FMG TILTS SONNY TIOGA PINNI EHF ZIGGY KONT
RIVER6 BTG J189 AVE EHF ZIGGY4
KPDX DCT URBIA V165 LKV J5 EHF STAR KONT
Route:
OFP Layout:
Units:
Detailed Navlog:
ETOPS Planning:
Plan Stepclimbs:
Runway Analysis:
Include NOTAMS:
FIR NOTAMS:
Flight Maps:

Popularity

Hub Current Bids PiReps this month Total PiReps
KMCI 0 0 3
KLAX 0 0 2
KBOS 0 0 0